createdAt,value
2022-10-18T00:01:09.210Z,6.50
2022-10-18T00:03:38.120Z,6.93
2022-10-18T00:06:09.098Z,6.82
2022-10-18T00:08:39.666Z,7.00
2022-10-18T00:11:08.248Z,7.32
2022-10-18T00:13:35.915Z,6.60
2022-10-18T00:16:09.734Z,6.65
2022-10-18T00:18:36.921Z,6.95
2022-10-18T00:21:12.795Z,7.22
2022-10-18T00:23:40.505Z,6.80
2022-10-18T00:26:22.753Z,7.30
2022-10-18T00:29:01.493Z,7.07
2022-10-18T00:31:37.500Z,7.20
2022-10-18T00:34:15.145Z,7.10
2022-10-18T00:36:44.235Z,7.20
2022-10-18T00:39:21.219Z,7.43
2022-10-18T00:41:50.447Z,7.53
2022-10-18T00:44:17.686Z,7.07
2022-10-18T00:46:49.710Z,7.57
2022-10-18T00:49:40.072Z,7.28
2022-10-18T00:52:47.412Z,7.30
2022-10-18T00:55:15.210Z,6.88
2022-10-18T00:57:45.348Z,7.20
2022-10-18T01:00:14.075Z,6.60
2022-10-18T01:02:45.040Z,6.47
2022-10-18T01:05:18.603Z,7.18
2022-10-18T01:08:15.960Z,6.85
2022-10-18T01:11:37.960Z,6.65
2022-10-18T01:14:51.430Z,7.20
2022-10-18T01:17:40.552Z,7.57
2022-10-18T01:20:58.672Z,6.95
2022-10-18T01:24:06.253Z,6.70
2022-10-18T01:27:24.354Z,6.70
2022-10-18T01:30:32.984Z,6.22
2022-10-18T01:33:28.867Z,6.10
2022-10-18T01:36:15.956Z,7.25
2022-10-18T01:38:47.563Z,6.47
2022-10-18T01:41:19.165Z,6.18
2022-10-18T01:43:51.073Z,6.97
2022-10-18T01:46:23.849Z,6.15
2022-10-18T01:48:54.518Z,5.80
2022-10-18T01:51:33.471Z,6.55
2022-10-18T01:54:01.703Z,6.55
2022-10-18T01:56:53.776Z,6.30
2022-10-18T01:59:57.540Z,6.47
2022-10-18T02:03:18.756Z,6.53
2022-10-18T02:06:27.358Z,7.15
2022-10-18T02:09:04.744Z,6.45
2022-10-18T02:11:36.273Z,7.05
2022-10-18T02:14:12.461Z,7.18
2022-10-18T02:16:48.403Z,7.35
2022-10-18T02:19:45.171Z,7.28
2022-10-18T02:22:46.005Z,7.13
2022-10-18T02:25:22.153Z,6.75
2022-10-18T02:27:49.778Z,6.93
2022-10-18T02:30:17.984Z,6.22
2022-10-18T02:32:58.504Z,6.78
2022-10-18T02:35:41.209Z,6.38
2022-10-18T02:38:12.804Z,5.97
2022-10-18T02:40:40.208Z,6.30
2022-10-18T02:43:07.736Z,6.03
2022-10-18T02:45:35.525Z,5.47
2022-10-18T02:48:02.835Z,5.43
2022-10-18T02:50:30.050Z,5.28
2022-10-18T02:52:57.241Z,5.22
2022-10-18T02:55:30.949Z,5.53
2022-10-18T02:57:58.687Z,5.40
2022-10-18T03:00:25.857Z,5.32
2022-10-18T03:02:53.807Z,5.50
2022-10-18T03:05:21.134Z,5.90
2022-10-18T03:07:48.329Z,5.00
2022-10-18T03:10:15.788Z,5.60
2022-10-18T03:12:43.013Z,5.22
2022-10-18T03:15:10.727Z,5.38
2022-10-18T03:17:37.924Z,5.43
2022-10-18T03:20:05.939Z,5.50
2022-10-18T03:22:33.269Z,4.70
2022-10-18T03:25:00.433Z,5.22
2022-10-18T03:27:27.643Z,4.60
2022-10-18T03:29:54.770Z,5.25
2022-10-18T03:32:21.920Z,5.30
2022-10-18T03:34:49.147Z,5.13
2022-10-18T03:37:16.402Z,4.82
2022-10-18T03:39:43.631Z,4.97
2022-10-18T03:42:10.753Z,4.47
2022-10-18T03:44:38.027Z,4.60
2022-10-18T03:47:05.350Z,5.18
2022-10-18T03:52:00.656Z,4.57
2022-10-18T03:54:27.831Z,4.95
2022-10-18T03:56:55.029Z,4.85
2022-10-18T03:59:22.996Z,4.90
2022-10-18T04:01:50.535Z,5.43
2022-10-18T04:04:18.143Z,5.25
2022-10-18T04:07:10.169Z,5.05
2022-10-18T04:09:37.431Z,4.72
2022-10-18T04:12:05.224Z,5.05
2022-10-18T04:14:32.384Z,5.13
2022-10-18T04:16:59.620Z,5.28
2022-10-18T04:19:27.727Z,5.13
2022-10-18T04:21:55.256Z,4.70
2022-10-18T04:24:22.955Z,5.40
2022-10-18T04:26:50.865Z,5.07
2022-10-18T04:29:18.904Z,4.70
2022-10-18T04:31:46.905Z,5.13
2022-10-18T04:34:14.203Z,5.22
2022-10-18T04:36:41.412Z,5.32
2022-10-18T04:39:08.577Z,5.22
2022-10-18T04:41:36.367Z,5.22
2022-10-18T04:44:03.952Z,5.20
2022-10-18T04:46:31.410Z,5.15
2022-10-18T04:49:01.184Z,4.70
2022-10-18T04:51:29.909Z,5.32
2022-10-18T04:53:57.596Z,5.63
2022-10-18T04:56:25.005Z,5.63
2022-10-18T04:58:52.318Z,4.75
2022-10-18T05:01:19.629Z,5.18
2022-10-18T05:03:56.159Z,5.65
2022-10-18T05:06:23.597Z,5.63
2022-10-18T05:08:50.875Z,4.87
2022-10-18T05:11:18.264Z,5.15
2022-10-18T05:13:47.261Z,5.50
2022-10-18T05:16:17.415Z,5.90
2022-10-18T05:18:44.714Z,5.57
2022-10-18T05:21:12.467Z,5.15
2022-10-18T05:23:39.938Z,5.15
2022-10-18T05:26:08.325Z,4.90
2022-10-18T05:28:40.135Z,5.10
2022-10-18T05:31:11.648Z,4.63
2022-10-18T05:33:39.123Z,5.10
2022-10-18T05:36:07.095Z,4.90
2022-10-18T05:41:06.970Z,5.10
2022-10-18T05:43:34.145Z,5.82
2022-10-18T05:46:01.457Z,5.65
2022-10-18T05:48:28.669Z,5.70
2022-10-18T05:50:59.735Z,5.75
2022-10-18T05:53:37.127Z,5.50
2022-10-18T05:56:08.605Z,5.55
2022-10-18T05:58:35.952Z,6.00
2022-10-18T06:01:05.850Z,5.75
2022-10-18T06:03:34.074Z,6.18
2022-10-18T06:06:12.063Z,6.38
2022-10-18T06:08:41.999Z,6.03
2022-10-18T06:11:20.827Z,6.50
2022-10-18T06:13:51.803Z,5.90
2022-10-18T06:16:22.736Z,5.95
2022-10-18T06:18:54.455Z,5.70
2022-10-18T06:21:23.962Z,5.80
2022-10-18T06:23:59.778Z,5.78
2022-10-18T06:26:28.682Z,5.60
2022-10-18T06:28:56.500Z,5.68
2022-10-18T06:31:23.905Z,6.07
2022-10-18T06:33:51.218Z,5.85
2022-10-18T06:36:24.412Z,6.25
2022-10-18T06:38:52.249Z,6.10
2022-10-18T06:41:20.543Z,5.93
2022-10-18T06:43:56.851Z,6.10
2022-10-18T06:46:25.021Z,6.28
2022-10-18T06:48:52.485Z,5.18
2022-10-18T06:51:20.562Z,4.60
2022-10-18T06:53:59.733Z,5.13
2022-10-18T06:56:37.662Z,4.85
2022-10-18T06:59:05.461Z,5.20
2022-10-18T07:01:33.034Z,5.90
2022-10-18T07:04:00.634Z,4.95
2022-10-18T07:06:28.701Z,4.85
2022-10-18T07:08:57.110Z,4.80
2022-10-18T07:11:27.012Z,4.72
2022-10-18T07:14:04.687Z,4.50
2022-10-18T07:16:34.416Z,4.03
2022-10-18T07:19:01.919Z,4.53
2022-10-18T07:21:29.298Z,3.72
2022-10-18T07:23:57.279Z,3.38
2022-10-18T07:26:33.280Z,3.67
2022-10-18T07:29:13.110Z,3.65
2022-10-18T07:31:40.951Z,4.38
2022-10-18T07:34:13.102Z,3.95
2022-10-18T07:36:41.288Z,4.30
2022-10-18T07:39:08.593Z,3.80
2022-10-18T07:41:36.267Z,4.07
2022-10-18T07:44:05.173Z,3.85
2022-10-18T07:46:32.918Z,4.15
2022-10-18T07:49:00.154Z,4.03
2022-10-18T07:51:28.502Z,3.78
2022-10-18T07:53:55.688Z,4.35
2022-10-18T07:56:23.238Z,4.22
2022-10-18T07:58:54.485Z,4.20
2022-10-18T08:01:24.504Z,4.20
2022-10-18T08:03:53.294Z,3.58
2022-10-18T08:06:23.159Z,4.35
2022-10-18T08:08:52.156Z,4.22
2022-10-18T08:11:25.013Z,4.10
2022-10-18T08:13:54.640Z,3.92
2022-10-18T08:18:59.118Z,4.03
2022-10-18T08:21:27.163Z,4.18
2022-10-18T08:23:56.315Z,3.95
2022-10-18T08:26:24.327Z,3.78
2022-10-18T08:29:03.609Z,3.90
2022-10-18T08:31:37.620Z,4.13
2022-10-18T08:34:04.812Z,4.47
2022-10-18T08:36:32.262Z,4.43
2022-10-18T08:38:59.599Z,3.92
2022-10-18T08:42:11.102Z,4.28
2022-10-18T08:44:49.965Z,4.13
2022-10-18T08:47:35.244Z,3.50
2022-10-18T08:50:07.130Z,4.22
2022-10-18T08:52:45.006Z,4.57
2022-10-18T08:55:36.460Z,3.75
2022-10-18T08:58:31.917Z,4.00
2022-10-18T09:01:44.028Z,3.72
2022-10-18T09:05:00.872Z,4.25
2022-10-18T09:08:01.274Z,3.78
2022-10-18T09:10:42.683Z,4.30
2022-10-18T09:14:01.106Z,3.95
2022-10-18T09:16:42.253Z,3.80
2022-10-18T09:23:05.225Z,3.75
2022-10-18T09:25:51.048Z,3.50
2022-10-18T09:28:36.634Z,3.85
2022-10-18T09:31:32.935Z,3.72
2022-10-18T09:34:12.731Z,3.85
2022-10-18T09:36:41.133Z,4.03
2022-10-18T09:39:19.953Z,3.97
2022-10-18T09:41:54.516Z,4.68
2022-10-18T09:44:30.391Z,3.67
2022-10-18T09:47:16.931Z,3.65
2022-10-18T09:49:59.297Z,3.72
2022-10-18T09:52:48.481Z,3.60
2022-10-18T09:55:36.625Z,3.58
2022-10-18T09:58:08.089Z,4.55
2022-10-18T10:00:48.586Z,2.67
2022-10-18T10:03:16.011Z,3.03
2022-10-18T10:05:44.842Z,3.00
2022-10-18T10:08:12.780Z,2.97
2022-10-18T10:10:47.174Z,2.65
2022-10-18T10:13:27.764Z,2.42
2022-10-18T10:16:03.737Z,2.50
2022-10-18T10:18:39.146Z,2.47
2022-10-18T10:21:15.283Z,2.03
2022-10-18T10:23:59.011Z,2.75
2022-10-18T10:26:35.050Z,2.60
2022-10-18T10:29:02.463Z,2.38
2022-10-18T10:31:31.863Z,2.13
2022-10-18T10:34:05.129Z,2.30
2022-10-18T10:36:35.224Z,2.30
2022-10-18T10:39:12.686Z,2.35
2022-10-18T10:41:41.949Z,2.53
2022-10-18T10:44:32.934Z,2.47
2022-10-18T10:47:00.645Z,2.30
2022-10-18T10:49:48.137Z,2.08
2022-10-18T10:52:28.585Z,2.40
2022-10-18T10:55:06.176Z,2.13
2022-10-18T10:57:50.545Z,2.25
2022-10-18T11:00:41.473Z,2.20
2022-10-18T11:03:30.644Z,2.10
2022-10-18T11:06:00.787Z,1.98
2022-10-18T11:08:39.021Z,2.13
2022-10-18T11:11:28.018Z,2.10
2022-10-18T11:14:26.133Z,2.10
2022-10-18T11:17:32.242Z,2.35
2022-10-18T11:20:29.557Z,2.55
2022-10-18T11:22:59.423Z,2.30
2022-10-18T11:25:49.058Z,2.58
2022-10-18T11:28:56.638Z,2.40
2022-10-18T11:32:02.264Z,2.55
2022-10-18T11:34:38.993Z,2.40
2022-10-18T11:37:47.549Z,2.42
2022-10-18T11:40:47.389Z,2.08
2022-10-18T11:44:01.689Z,2.28
2022-10-18T11:46:42.287Z,2.60
2022-10-18T11:49:53.071Z,2.28
2022-10-18T11:53:15.225Z,2.20
2022-10-18T11:55:57.633Z,1.90
2022-10-18T11:59:18.926Z,1.85
2022-10-18T12:02:04.248Z,2.28
2022-10-18T12:05:22.480Z,2.20
2022-10-18T12:08:40.449Z,2.40
2022-10-18T12:11:28.589Z,2.38
2022-10-18T12:14:43.364Z,2.40
2022-10-18T12:17:50.050Z,2.30
2022-10-18T12:20:27.768Z,2.45
2022-10-18T12:23:24.008Z,2.00
2022-10-18T12:25:59.371Z,2.80
2022-10-18T12:29:21.655Z,2.20
2022-10-18T12:31:55.221Z,2.50
2022-10-18T12:34:22.479Z,2.17
2022-10-18T12:37:36.365Z,2.50
2022-10-18T12:40:38.672Z,2.10
2022-10-18T12:43:36.871Z,2.67
2022-10-18T12:46:13.508Z,2.28
2022-10-18T12:48:51.092Z,2.08
2022-10-18T12:51:23.754Z,2.05
2022-10-18T12:54:12.166Z,2.13
2022-10-18T12:56:46.769Z,2.40
2022-10-18T12:59:17.060Z,2.10
2022-10-18T13:01:53.646Z,1.98
2022-10-18T13:07:31.397Z,1.77
2022-10-18T13:10:12.333Z,1.70
2022-10-18T13:13:39.167Z,2.03
2022-10-18T13:16:32.125Z,1.90
2022-10-18T13:19:24.223Z,1.88
2022-10-18T13:22:27.154Z,1.90
2022-10-18T13:25:17.083Z,1.90
2022-10-18T13:28:06.136Z,2.13
2022-10-18T13:30:56.152Z,1.90
2022-10-18T13:33:39.283Z,1.98
2022-10-18T13:36:22.832Z,2.50
2022-10-18T13:38:55.524Z,2.45
2022-10-18T13:41:35.444Z,2.70
2022-10-18T13:44:40.177Z,2.30
2022-10-18T13:47:07.525Z,2.00
2022-10-18T13:50:09.325Z,2.13
2022-10-18T13:53:07.486Z,1.95
2022-10-18T13:56:21.841Z,1.67
2022-10-18T13:59:28.930Z,2.85
2022-10-18T14:02:42.856Z,5.00
2022-10-18T14:06:25.793Z,3.20
2022-10-18T14:09:09.562Z,2.08
2022-10-18T14:12:08.813Z,2.85
2022-10-18T14:15:07.661Z,1.50
2022-10-18T14:18:05.634Z,1.70
2022-10-18T14:21:01.380Z,1.63
2022-10-18T14:23:44.509Z,1.48
2022-10-18T14:26:19.733Z,1.60
2022-10-18T14:29:07.326Z,1.88
2022-10-18T14:31:35.314Z,1.75
2022-10-18T14:34:03.625Z,1.77
2022-10-18T14:36:40.985Z,1.88
2022-10-18T14:39:22.498Z,1.73
2022-10-18T14:41:56.149Z,1.60
2022-10-18T14:44:31.656Z,1.90
2022-10-18T14:47:15.239Z,2.17
2022-10-18T14:49:47.486Z,2.03
2022-10-18T14:52:21.966Z,2.00
2022-10-18T14:54:55.558Z,1.90
2022-10-18T14:57:33.661Z,2.13
2022-10-18T15:00:08.846Z,1.90
2022-10-18T15:02:38.973Z,2.00
2022-10-18T15:05:24.344Z,1.70
2022-10-18T15:07:53.558Z,1.95
2022-10-18T15:10:24.607Z,1.80
2022-10-18T15:13:09.724Z,2.17
2022-10-18T15:15:39.638Z,1.73
2022-10-18T15:18:13.102Z,1.83
2022-10-18T15:20:42.422Z,1.83
2022-10-18T15:23:27.822Z,2.17
2022-10-18T15:26:12.070Z,1.75
2022-10-18T15:28:51.371Z,1.80
2022-10-18T15:31:27.427Z,2.30
2022-10-18T15:34:11.771Z,2.22
2022-10-18T15:36:39.277Z,1.80
2022-10-18T15:39:15.308Z,1.90
2022-10-18T15:41:59.573Z,2.00
2022-10-18T15:44:53.867Z,1.88
2022-10-18T15:47:23.604Z,2.00
2022-10-18T15:50:00.259Z,2.03
2022-10-18T15:52:43.013Z,2.10
2022-10-18T15:55:32.906Z,2.10
2022-10-18T15:58:22.961Z,2.10
2022-10-18T16:00:53.816Z,2.00
2022-10-18T16:03:23.850Z,2.67
2022-10-18T16:06:06.378Z,2.63
2022-10-18T16:08:44.291Z,2.47
2022-10-18T16:11:23.964Z,2.78
2022-10-18T16:13:56.381Z,2.75
2022-10-18T16:16:29.508Z,2.40
2022-10-18T16:18:57.960Z,2.35
2022-10-18T16:21:37.520Z,2.35
2022-10-18T16:24:06.295Z,2.40
2022-10-18T16:26:35.236Z,2.58
2022-10-18T16:29:02.791Z,2.47
2022-10-18T16:31:34.938Z,2.35
2022-10-18T16:34:02.574Z,2.60
2022-10-18T16:36:33.529Z,2.83
2022-10-18T16:39:07.740Z,3.70
2022-10-18T16:41:35.190Z,2.63
2022-10-18T16:44:02.295Z,2.42
2022-10-18T16:46:34.200Z,2.60
2022-10-18T16:51:54.442Z,2.75
2022-10-18T16:54:23.561Z,3.40
2022-10-18T16:56:51.196Z,3.10
2022-10-18T16:59:28.878Z,3.13
2022-10-18T17:01:56.474Z,2.67
2022-10-18T17:04:23.802Z,2.40
2022-10-18T17:06:54.742Z,2.50
2022-10-18T17:09:22.130Z,2.50
2022-10-18T17:11:49.774Z,2.95
2022-10-18T17:14:16.937Z,3.03
2022-10-18T17:16:46.643Z,2.80
2022-10-18T17:19:18.046Z,2.72
2022-10-18T17:21:45.331Z,2.95
2022-10-18T17:24:12.581Z,3.17
2022-10-18T17:26:39.768Z,3.38
2022-10-18T17:29:08.373Z,3.30
2022-10-18T17:31:36.052Z,3.28
2022-10-18T17:34:04.248Z,3.35
2022-10-18T17:36:33.237Z,3.10
2022-10-18T17:39:00.770Z,3.17
2022-10-18T17:41:28.574Z,4.03
2022-10-18T17:43:56.434Z,4.20
2022-10-18T17:46:42.501Z,3.70
2022-10-18T17:49:10.483Z,3.38
2022-10-18T17:51:37.645Z,3.70
2022-10-18T17:54:05.894Z,3.97
2022-10-18T17:56:35.912Z,3.38
2022-10-18T17:59:03.599Z,3.33
2022-10-18T18:01:31.030Z,3.28
2022-10-18T18:04:02.254Z,4.18
2022-10-18T18:06:35.828Z,3.53
2022-10-18T18:09:12.766Z,3.83
2022-10-18T18:11:44.304Z,5.10
2022-10-18T18:14:13.448Z,4.90
2022-10-18T18:16:45.721Z,5.53
2022-10-18T18:19:15.143Z,5.15
2022-10-18T18:21:43.109Z,4.70
2022-10-18T18:24:10.765Z,4.07
2022-10-18T18:26:39.823Z,4.60
2022-10-18T18:29:07.681Z,4.30
2022-10-18T18:31:38.863Z,4.78
2022-10-18T18:34:10.722Z,5.68
2022-10-18T18:36:39.047Z,5.10
2022-10-18T18:39:07.325Z,5.63
2022-10-18T18:41:35.183Z,7.60
2022-10-18T18:44:06.127Z,11.52
2022-10-18T18:46:40.969Z,9.50
2022-10-18T18:49:10.065Z,8.80
2022-10-18T18:51:39.642Z,8.68
2022-10-18T18:54:13.801Z,7.30
2022-10-18T18:56:42.781Z,6.20
2022-10-18T18:59:14.542Z,6.63
2022-10-18T19:01:42.947Z,6.40
2022-10-18T19:04:10.853Z,5.75
2022-10-18T19:06:45.125Z,6.20
2022-10-18T19:09:22.062Z,6.07
2022-10-18T19:11:53.008Z,5.05
2022-10-18T19:17:01.570Z,6.60
2022-10-18T19:19:31.149Z,6.05
2022-10-18T19:22:08.307Z,6.97
2022-10-18T19:24:35.661Z,7.05
2022-10-18T19:27:11.729Z,6.65
2022-10-18T19:29:41.384Z,5.40
2022-10-18T19:32:12.226Z,5.30
2022-10-18T19:34:41.350Z,5.78
2022-10-18T19:37:12.499Z,5.15
2022-10-18T19:39:39.974Z,5.95
2022-10-18T19:42:17.479Z,6.03
2022-10-18T19:44:49.629Z,5.57
2022-10-18T19:47:16.792Z,6.38
2022-10-18T19:49:44.182Z,6.70
2022-10-18T19:52:12.364Z,6.75
2022-10-18T19:54:42.644Z,6.97
2022-10-18T19:57:09.790Z,5.88
2022-10-18T19:59:37.127Z,6.22
2022-10-18T20:02:04.749Z,6.40
2022-10-18T20:04:34.786Z,6.45
2022-10-18T20:07:02.831Z,6.75
2022-10-18T20:09:30.558Z,6.80
2022-10-18T20:11:57.715Z,7.25
2022-10-18T20:14:25.195Z,6.75
2022-10-18T20:16:52.441Z,8.20
2022-10-18T20:19:19.595Z,7.90
2022-10-18T20:21:46.767Z,8.05
2022-10-18T20:24:13.966Z,7.53
2022-10-18T20:26:41.286Z,7.32
2022-10-18T20:29:08.635Z,6.70
2022-10-18T20:31:38.862Z,7.13
2022-10-18T20:34:11.951Z,6.72
2022-10-18T20:36:40.249Z,7.13
2022-10-18T20:39:07.973Z,6.97
2022-10-18T20:41:43.278Z,7.25
2022-10-18T20:44:19.196Z,7.32
2022-10-18T20:46:46.954Z,7.13
2022-10-18T20:49:19.293Z,7.03
2022-10-18T20:51:46.566Z,6.85
2022-10-18T20:54:13.782Z,7.65
2022-10-18T20:56:41.274Z,7.65
2022-10-18T20:59:10.113Z,7.18
2022-10-18T21:01:39.132Z,7.85
2022-10-18T21:04:09.714Z,7.72
2022-10-18T21:06:43.864Z,7.03
2022-10-18T21:09:19.629Z,7.45
2022-10-18T21:11:50.826Z,7.78
2022-10-18T21:14:22.905Z,7.63
2022-10-18T21:16:52.673Z,8.55
2022-10-18T21:19:26.709Z,7.68
2022-10-18T21:21:57.363Z,7.47
2022-10-18T21:24:26.387Z,7.30
2022-10-18T21:26:54.573Z,7.45
2022-10-18T21:29:24.431Z,7.30
2022-10-18T21:31:57.987Z,7.65
2022-10-18T21:34:26.505Z,8.02
2022-10-18T21:36:53.916Z,7.20
2022-10-18T21:41:56.031Z,7.07
2022-10-18T21:44:23.299Z,8.05
2022-10-18T21:46:50.685Z,7.35
2022-10-18T21:49:18.106Z,7.05
2022-10-18T21:51:45.254Z,7.28
2022-10-18T21:54:16.089Z,6.90
2022-10-18T21:56:44.401Z,6.38
2022-10-18T21:59:13.486Z,6.57
2022-10-18T22:01:43.562Z,7.45
2022-10-18T22:04:22.303Z,7.32
2022-10-18T22:06:50.350Z,7.22
2022-10-18T22:09:18.314Z,6.90
2022-10-18T22:11:51.508Z,7.25
2022-10-18T22:14:19.215Z,7.32
2022-10-18T22:16:46.424Z,6.60
2022-10-18T22:19:13.797Z,7.13
2022-10-18T22:21:40.935Z,7.40
2022-10-18T22:24:09.971Z,7.82
2022-10-18T22:26:41.751Z,7.50
2022-10-18T22:29:18.043Z,7.82
2022-10-18T22:31:50.053Z,7.15
2022-10-18T22:34:27.604Z,7.00
2022-10-18T22:36:56.250Z,7.70
2022-10-18T22:39:24.511Z,8.25
2022-10-18T22:41:55.725Z,9.00
2022-10-18T22:44:23.426Z,8.32
2022-10-18T22:46:50.560Z,8.35
2022-10-18T22:49:17.701Z,8.38
2022-10-18T22:51:44.978Z,8.07
2022-10-18T22:54:12.190Z,8.77
2022-10-18T22:56:39.447Z,6.90
2022-10-18T22:59:06.679Z,7.20
2022-10-18T23:01:33.878Z,7.53
2022-10-18T23:04:03.441Z,7.90
2022-10-18T23:06:36.298Z,7.57
2022-10-18T23:09:08.657Z,7.50
2022-10-18T23:11:37.833Z,7.80
2022-10-18T23:14:07.370Z,7.70
2022-10-18T23:16:35.272Z,6.95
2022-10-18T23:19:03.386Z,7.05
2022-10-18T23:21:30.667Z,7.22
2022-10-18T23:23:57.878Z,6.78
2022-10-18T23:26:28.025Z,6.68
2022-10-18T23:28:55.873Z,6.57
2022-10-18T23:31:27.322Z,7.90
2022-10-18T23:33:58.634Z,8.50
2022-10-18T23:36:27.119Z,8.15
2022-10-18T23:38:55.477Z,7.70
2022-10-18T23:41:24.921Z,7.45
2022-10-18T23:43:52.669Z,7.55
2022-10-18T23:46:20.432Z,7.72
2022-10-18T23:48:49.891Z,7.25
2022-10-18T23:51:18.216Z,8.10
2022-10-18T23:53:45.573Z,8.15
2022-10-18T23:56:16.353Z,8.30
2022-10-18T23:58:45.893Z,9.32
